Kyle, West Virginia
Current Conditions -  °F | °C
As of 10:52 PM on Tuesday 27 Jan 2015 (Local Time) from KBLF Reporting Station
Overcast Overcast  
Wind Chill:   Ceiling: 1700
Heat Index: 19°   Visibility: 10mi
Dew Point:   Wind: 8mph
Humidity: 65%   Direction: 300°WNW
Pressure: 30.01"   Gusts: 21mph
Location:  37.41°N, 81.43°W
Report Text: KBLF 280352Z AUTO 30007G18KT 10SM OVC017 M07/M13 A3001 RMK AO2 SNB16E29 SLP193 P0000 T10721128
Loading
Personal Weather Stations






























Interactive Weather Map New forecast layout! Learn more

10-Day Weather Forecast

Advertisements
Track Severe Weather on mobile